Time;durP1;ratioP1;P1;durP2;ratioP2;P2;SDS_P1;SDS_P2;PMS_P1;PMS_P2;Temp;Humidity;BMP_temperature;BMP_pressure;BME280_temperature;BME280_humidity;BME280_pressure;Samples;Min_cycle;Max_cycle;Signal;HPM_P1;HPM_P2
2022/12/10 00:00:52;;;;;;;;;;;-1.30;99.90;;;;;;5088532;28;20387;-65
2022/12/10 00:03:18;;;;;;;;;;;-1.40;99.90;;;;;;5090375;28;19931;-65
2022/12/10 00:05:43;;;;;;;;;;;-1.40;99.90;;;;;;5090007;28;20031;-65
2022/12/10 00:08:09;;;;;;;;;;;-1.40;99.90;;;;;;5093108;28;19950;-65
2022/12/10 00:10:38;;;;;;;;;;;-1.40;99.90;;;;;;5128236;27;19956;-65
2022/12/10 00:13:04;;;;;;;;;;;-1.50;99.90;;;;;;5118396;27;19928;-65
2022/12/10 00:15:29;;;;;;;;;;;-1.60;99.90;;;;;;5096608;28;19924;-65
2022/12/10 00:17:54;;;;;;;;;;;-1.50;99.90;;;;;;5099483;28;20199;-65
2022/12/10 00:20:20;;;;;;;;;;;-1.60;99.90;;;;;;5089812;28;19923;-65
2022/12/10 00:22:45;;;;;;;;;;;-1.60;99.90;;;;;;5118571;27;20482;-65
2022/12/10 00:25:11;;;;;;;;;;;-1.70;99.90;;;;;;5094016;28;19931;-65
2022/12/10 00:27:36;;;;;;;;;;;-1.70;99.90;;;;;;5086608;28;19931;-65
2022/12/10 00:30:02;;;;;;;;;;;-1.80;99.90;;;;;;5093833;28;19942;-65
2022/12/10 00:32:28;;;;;;;;;;;-1.70;99.90;;;;;;5086758;28;19928;-65
2022/12/10 00:34:53;;;;;;;;;;;-1.70;99.90;;;;;;5092216;28;20275;-65
2022/12/10 00:37:18;;;;;;;;;;;-1.70;99.90;;;;;;5086886;28;19970;-65
2022/12/10 00:39:44;;;;;;;;;;;-1.80;99.90;;;;;;5094327;28;19974;-65
2022/12/10 00:42:09;;;;;;;;;;;-1.80;99.90;;;;;;5080469;28;19928;-65
2022/12/10 00:44:35;;;;;;;;;;;-1.80;99.90;;;;;;5086146;28;20371;-66
2022/12/10 00:47:00;;;;;;;;;;;-1.90;99.90;;;;;;5087390;28;19963;-66
2022/12/10 00:49:26;;;;;;;;;;;-2.00;99.90;;;;;;5099851;28;19920;-66
2022/12/10 00:51:51;;;;;;;;;;;-2.00;99.90;;;;;;5095485;28;19965;-66
2022/12/10 00:54:17;;;;;;;;;;;-2.00;99.90;;;;;;5092249;28;20376;-66
2022/12/10 00:56:42;;;;;;;;;;;-1.90;99.90;;;;;;5100070;28;19959;-66
2022/12/10 00:59:08;;;;;;;;;;;-1.90;99.90;;;;;;5127378;27;19927;-65
2022/12/10 01:01:35;;;;;;;;;;;-1.90;99.90;;;;;;5087909;28;19920;-66
2022/12/10 01:04:02;;;;;;;;;;;-2.00;99.90;;;;;;5096520;28;19920;-66
2022/12/10 01:06:28;;;;;;;;;;;-2.00;99.90;;;;;;5089625;28;20409;-66
2022/12/10 01:08:55;;;;;;;;;;;-1.90;99.90;;;;;;5131237;27;19946;-66
2022/12/10 01:11:21;;;;;;;;;;;-1.90;99.90;;;;;;5096469;28;19924;-66
2022/12/10 01:13:48;;;;;;;;;;;-2.00;99.90;;;;;;5098998;28;20014;-66
2022/12/10 01:16:14;;;;;;;;;;;-1.90;99.90;;;;;;5089648;28;19934;-66
2022/12/10 01:18:40;;;;;;;;;;;-2.00;99.90;;;;;;5090939;28;19968;-66
2022/12/10 01:21:08;;;;;;;;;;;-2.00;99.90;;;;;;5096016;28;19970;-66
2022/12/10 01:23:34;;;;;;;;;;;-1.90;99.90;;;;;;5095300;28;20370;-66
2022/12/10 01:26:00;;;;;;;;;;;-1.90;99.90;;;;;;5093493;28;19954;-66
2022/12/10 01:28:27;;;;;;;;;;;-1.90;99.90;;;;;;5096536;28;19938;-66
2022/12/10 01:30:53;;;;;;;;;;;-1.80;99.90;;;;;;5096209;28;20381;-66
2022/12/10 01:33:18;;;;;;;;;;;-1.80;99.90;;;;;;5087826;28;19937;-66
2022/12/10 01:35:44;;;;;;;;;;;-1.80;99.90;;;;;;5098677;28;19920;-66
2022/12/10 01:38:09;;;;;;;;;;;-1.80;99.90;;;;;;5092040;28;20620;-66
2022/12/10 01:40:37;;;;;;;;;;;-1.70;99.90;;;;;;5099446;28;19920;-66
2022/12/10 01:43:02;;;;;;;;;;;-1.80;99.90;;;;;;5088650;28;19975;-66
2022/12/10 01:45:28;;;;;;;;;;;-1.80;99.90;;;;;;5094008;28;20388;-66
2022/12/10 01:47:53;;;;;;;;;;;-1.80;99.90;;;;;;5085534;28;20006;-66
2022/12/10 01:50:19;;;;;;;;;;;-1.80;99.90;;;;;;5086000;28;20019;-66
2022/12/10 01:52:45;;;;;;;;;;;-1.90;99.90;;;;;;5092205;28;20294;-66
2022/12/10 01:55:30;;;;;;;;;;;-1.90;99.90;;;;;;5089694;28;20007;-66
2022/12/10 01:57:56;;;;;;;;;;;-2.00;99.90;;;;;;5114765;27;19927;-66
2022/12/10 02:00:21;;;;;;;;;;;-2.00;99.90;;;;;;5089176;28;20370;-66
2022/12/10 02:02:55;;;;;;;;;;;-2.00;99.90;;;;;;5084253;28;19997;-66
2022/12/10 02:05:24;;;;;;;;;;;-2.00;99.90;;;;;;5086092;28;19959;-66
2022/12/10 02:08:05;;;;;;;;;;;-2.10;99.90;;;;;;5106634;27;20371;-66
2022/12/10 02:10:30;;;;;;;;;;;-2.10;99.90;;;;;;5090317;28;20212;-66
2022/12/10 02:13:16;;;;;;;;;;;-2.10;99.90;;;;;;5089580;28;20577;-66
2022/12/10 02:15:48;;;;;;;;;;;-2.10;99.90;;;;;;5101497;28;20296;-66
2022/12/10 02:18:19;;;;;;;;;;;-2.20;99.90;;;;;;5092995;28;19967;-66
2022/12/10 02:21:08;;;;;;;;;;;-2.30;99.90;;;;;;5104420;27;19931;-66
2022/12/10 02:23:39;;;;;;;;;;;-2.20;99.90;;;;;;5075761;28;19923;-66
2022/12/10 02:26:14;;;;;;;;;;;-2.20;99.90;;;;;;5082748;28;19931;-66
2022/12/10 02:28:51;;;;;;;;;;;-2.30;99.90;;;;;;5121877;27;19924;-66
2022/12/10 02:31:22;;;;;;;;;;;-2.40;99.90;;;;;;5091362;28;19955;-66
2022/12/10 02:33:54;;;;;;;;;;;-2.40;99.90;;;;;;5091859;28;19971;-66
2022/12/10 02:36:21;;;;;;;;;;;-2.40;99.90;;;;;;5089512;28;19921;-66
2022/12/10 02:38:48;;;;;;;;;;;-2.50;99.90;;;;;;5091579;28;19927;-65
2022/12/10 02:41:16;;;;;;;;;;;-2.50;99.90;;;;;;5096765;28;19924;-66
2022/12/10 02:43:43;;;;;;;;;;;-2.50;99.90;;;;;;5100147;28;19927;-66
2022/12/10 02:46:08;;;;;;;;;;;-2.50;99.90;;;;;;5097178;28;19920;-66
2022/12/10 02:48:35;;;;;;;;;;;-2.60;99.90;;;;;;5094785;28;19927;-66
2022/12/10 02:51:00;;;;;;;;;;;-2.70;99.90;;;;;;5097513;28;19923;-66
2022/12/10 02:53:26;;;;;;;;;;;-2.60;99.90;;;;;;5077753;28;20690;-66
2022/12/10 02:56:10;;;;;;;;;;;-2.60;99.90;;;;;;5098813;28;19973;-66
2022/12/10 02:58:56;;;;;;;;;;;-2.70;99.90;;;;;;5072319;28;19920;-66
2022/12/10 03:01:36;;;;;;;;;;;-2.60;99.90;;;;;;5054485;28;19959;-66
2022/12/10 03:04:06;;;;;;;;;;;-2.70;99.90;;;;;;5118112;27;19924;-66
2022/12/10 03:06:47;;;;;;;;;;;-2.60;99.90;;;;;;5089304;28;19924;-66
2022/12/10 03:09:23;;;;;;;;;;;-2.70;99.90;;;;;;5122368;27;19920;-66
2022/12/10 03:11:52;;;;;;;;;;;-2.60;99.90;;;;;;5089453;28;19931;-66
2022/12/10 03:14:26;;;;;;;;;;;-2.70;99.90;;;;;;5121032;27;19936;-66
2022/12/10 03:16:54;;;;;;;;;;;-2.80;99.90;;;;;;5127495;27;20286;-66
2022/12/10 03:19:21;;;;;;;;;;;-2.70;99.90;;;;;;5098486;28;19923;-66
2022/12/10 03:21:49;;;;;;;;;;;-2.80;99.90;;;;;;5132009;27;19924;-66
2022/12/10 03:24:15;;;;;;;;;;;-2.70;99.90;;;;;;5089017;28;19928;-66
2022/12/10 03:26:41;;;;;;;;;;;-2.60;99.90;;;;;;5124641;27;19919;-66
2022/12/10 03:29:09;;;;;;;;;;;-2.60;99.90;;;;;;5090208;28;20325;-66
2022/12/10 03:31:35;;;;;;;;;;;-2.60;99.90;;;;;;5123545;27;19920;-66
2022/12/10 03:34:02;;;;;;;;;;;-2.70;99.90;;;;;;5119004;27;19924;-66
2022/12/10 03:36:28;;;;;;;;;;;-2.80;99.90;;;;;;5092322;28;19928;-66
2022/12/10 03:38:54;;;;;;;;;;;-2.80;99.90;;;;;;5095796;28;20322;-66
2022/12/10 03:41:20;;;;;;;;;;;-2.80;99.90;;;;;;5094748;28;20011;-66
2022/12/10 03:43:52;;;;;;;;;;;-2.70;99.90;;;;;;5091071;28;20412;-66
2022/12/10 03:46:18;;;;;;;;;;;-2.80;99.90;;;;;;5126851;27;20368;-66
2022/12/10 03:48:43;;;;;;;;;;;-2.80;99.90;;;;;;5093867;28;20023;-66
2022/12/10 03:51:09;;;;;;;;;;;-2.90;99.90;;;;;;5091082;28;19928;-66
2022/12/10 03:53:34;;;;;;;;;;;-2.90;99.90;;;;;;5090375;28;19974;-66
2022/12/10 03:56:00;;;;;;;;;;;-2.90;99.90;;;;;;5083633;28;19932;-66
2022/12/10 03:58:25;;;;;;;;;;;-2.90;99.90;;;;;;5087452;28;19942;-66
2022/12/10 04:00:51;;;;;;;;;;;-2.80;99.90;;;;;;5094402;28;19926;-66
2022/12/10 04:03:16;;;;;;;;;;;-3.00;99.90;;;;;;5088636;28;19920;-66
2022/12/10 04:05:42;;;;;;;;;;;-3.00;99.90;;;;;;5095006;28;20015;-66
2022/12/10 04:08:07;;;;;;;;;;;-3.00;99.90;;;;;;5088159;28;20420;-66
2022/12/10 04:10:36;;;;;;;;;;;-3.00;99.90;;;;;;5091604;28;19939;-66
2022/12/10 04:18:31;;;;;;;;;;;-3.00;99.90;;;;;;5085109;28;19938;-66
2022/12/10 04:29:24;;;;;;;;;;;-3.00;99.90;;;;;;5078251;27;19932;-66
2022/12/10 04:31:50;;;;;;;;;;;-3.10;99.90;;;;;;5129927;27;19920;-65
2022/12/10 04:34:16;;;;;;;;;;;-3.10;99.90;;;;;;5073047;28;19928;-66
2022/12/10 04:36:41;;;;;;;;;;;-3.10;99.90;;;;;;5095361;28;19930;-65
2022/12/10 04:39:07;;;;;;;;;;;-3.20;99.90;;;;;;5115371;27;20366;-66
2022/12/10 04:41:33;;;;;;;;;;;-3.20;99.90;;;;;;5093692;28;19970;-65
2022/12/10 04:43:58;;;;;;;;;;;-3.20;99.90;;;;;;5115650;27;19969;-65
2022/12/10 04:46:24;;;;;;;;;;;-3.20;99.90;;;;;;5089639;28;19924;-65
2022/12/10 04:48:49;;;;;;;;;;;-3.20;99.90;;;;;;5125160;27;22002;-65
2022/12/10 04:51:15;;;;;;;;;;;-3.20;99.90;;;;;;5087769;28;19924;-65
2022/12/10 04:53:40;;;;;;;;;;;-3.20;99.90;;;;;;5112258;27;20504;-66
2022/12/10 04:56:06;;;;;;;;;;;-3.30;99.90;;;;;;5094005;28;19926;-65
2022/12/10 04:58:32;;;;;;;;;;;-3.30;99.90;;;;;;5121869;27;20579;-65
2022/12/10 05:01:02;;;;;;;;;;;-3.50;99.90;;;;;;5088978;28;19928;-65
2022/12/10 05:03:28;;;;;;;;;;;-3.50;99.90;;;;;;5092009;28;20472;-65
2022/12/10 05:05:53;;;;;;;;;;;-3.40;99.90;;;;;;5086092;28;20006;-65
2022/12/10 05:08:19;;;;;;;;;;;-3.40;99.90;;;;;;5091087;28;20371;-66
2022/12/10 05:10:44;;;;;;;;;;;-3.30;99.90;;;;;;5092801;28;20006;-65
2022/12/10 05:13:10;;;;;;;;;;;-3.30;99.90;;;;;;5092839;28;19931;-66
2022/12/10 05:15:37;;;;;;;;;;;-3.10;99.90;;;;;;5125835;27;21473;-66
2022/12/10 05:18:03;;;;;;;;;;;-3.10;99.90;;;;;;5091756;28;20263;-65
2022/12/10 05:20:28;;;;;;;;;;;-3.00;99.90;;;;;;5086767;28;19935;-66
2022/12/10 05:25:52;;;;;;;;;;;-2.80;99.90;;;;;;5118764;27;20370;-66
2022/12/10 05:28:21;;;;;;;;;;;-2.70;99.90;;;;;;5074740;28;20358;-65
2022/12/10 05:30:47;;;;;;;;;;;-2.60;99.90;;;;;;5088196;28;19920;-66
2022/12/10 05:33:13;;;;;;;;;;;-2.60;99.90;;;;;;5099424;28;19939;-66
2022/12/10 05:35:38;;;;;;;;;;;-2.50;99.90;;;;;;5127961;27;19920;-66
2022/12/10 05:38:05;;;;;;;;;;;-2.40;99.90;;;;;;5098373;28;19919;-66
2022/12/10 05:40:34;;;;;;;;;;;-2.50;99.90;;;;;;5087984;28;19928;-66
2022/12/10 05:42:59;;;;;;;;;;;-2.40;99.90;;;;;;5093886;28;19923;-65
2022/12/10 05:45:25;;;;;;;;;;;-2.30;99.90;;;;;;5081735;28;19947;-66
2022/12/10 05:47:50;;;;;;;;;;;-2.20;99.90;;;;;;5087476;28;19920;-66
2022/12/10 05:50:16;;;;;;;;;;;-2.10;99.90;;;;;;5112452;27;19973;-66
2022/12/10 05:52:41;;;;;;;;;;;-2.20;99.90;;;;;;5073503;28;20323;-66
2022/12/10 05:55:07;;;;;;;;;;;-2.20;99.90;;;;;;5087033;28;19928;-66
2022/12/10 05:57:32;;;;;;;;;;;-2.20;99.90;;;;;;5092946;28;19926;-66
2022/12/10 05:59:58;;;;;;;;;;;-2.10;99.90;;;;;;5084921;28;19928;-66
2022/12/10 06:02:23;;;;;;;;;;;-2.10;99.90;;;;;;5094620;28;19979;-66
2022/12/10 06:04:49;;;;;;;;;;;-2.00;99.90;;;;;;5088739;28;19924;-66
2022/12/10 06:07:14;;;;;;;;;;;-2.10;99.90;;;;;;5123357;27;19965;-66
2022/12/10 06:09:40;;;;;;;;;;;-2.00;99.90;;;;;;5072809;28;20306;-66
2022/12/10 06:12:05;;;;;;;;;;;-2.00;99.90;;;;;;5085462;28;19923;-66
2022/12/10 06:14:31;;;;;;;;;;;-1.90;99.90;;;;;;5087104;28;19932;-66
2022/12/10 06:16:56;;;;;;;;;;;-1.90;99.90;;;;;;5085770;28;20347;-66
2022/12/10 06:19:22;;;;;;;;;;;-2.00;99.90;;;;;;5092685;28;19919;-66
2022/12/10 06:21:47;;;;;;;;;;;-1.90;99.90;;;;;;5105402;27;19955;-66
2022/12/10 06:24:13;;;;;;;;;;;-2.00;99.90;;;;;;5097422;28;19924;-66
2022/12/10 06:26:38;;;;;;;;;;;-2.00;99.90;;;;;;5092579;28;19927;-66
2022/12/10 06:29:04;;;;;;;;;;;-1.90;99.90;;;;;;5088926;28;19920;-66
2022/12/10 06:31:30;;;;;;;;;;;-1.90;99.90;;;;;;5090511;28;19982;-66
2022/12/10 06:33:55;;;;;;;;;;;-1.90;99.90;;;;;;5079673;28;19924;-66
2022/12/10 06:36:21;;;;;;;;;;;-1.80;99.90;;;;;;5079743;28;20033;-66
2022/12/10 06:38:47;;;;;;;;;;;-1.90;99.90;;;;;;5091698;28;19969;-66
2022/12/10 06:41:14;;;;;;;;;;;-1.90;99.90;;;;;;5122605;27;19942;-66
2022/12/10 06:43:39;;;;;;;;;;;-1.90;99.90;;;;;;5122782;27;20060;-66
2022/12/10 06:46:12;;;;;;;;;;;-1.80;99.90;;;;;;5092442;28;20077;-66
2022/12/10 06:48:38;;;;;;;;;;;-1.90;99.90;;;;;;5092415;28;20573;-66
2022/12/10 06:51:04;;;;;;;;;;;-1.80;99.90;;;;;;5121500;27;19924;-66
2022/12/10 06:53:30;;;;;;;;;;;-1.90;99.90;;;;;;5082532;28;19932;-66
2022/12/10 06:55:57;;;;;;;;;;;-1.80;99.90;;;;;;5084517;28;20016;-66
2022/12/10 06:58:22;;;;;;;;;;;-1.80;99.90;;;;;;5096340;28;20377;-66
2022/12/10 07:00:48;;;;;;;;;;;-1.90;99.90;;;;;;5090554;28;19963;-66
2022/12/10 07:03:13;;;;;;;;;;;-1.90;99.90;;;;;;5096352;28;19920;-66
2022/12/10 07:05:39;;;;;;;;;;;-1.80;99.90;;;;;;5123212;27;19920;-66
2022/12/10 07:08:04;;;;;;;;;;;-1.90;99.90;;;;;;5099120;27;20149;-66
2022/12/10 07:10:30;;;;;;;;;;;-1.80;99.90;;;;;;5085155;28;19927;-66
2022/12/10 07:12:56;;;;;;;;;;;-1.70;99.90;;;;;;5095117;28;19920;-66
2022/12/10 07:15:23;;;;;;;;;;;-1.70;99.90;;;;;;5089357;28;20016;-66
2022/12/10 07:17:50;;;;;;;;;;;-1.70;99.90;;;;;;5095424;28;20417;-66
2022/12/10 07:20:15;;;;;;;;;;;-1.70;99.90;;;;;;5077194;28;19924;-66
2022/12/10 07:22:41;;;;;;;;;;;-1.80;99.90;;;;;;5089934;28;19965;-66
2022/12/10 07:25:06;;;;;;;;;;;-1.70;99.90;;;;;;5091954;28;19920;-66
2022/12/10 07:27:32;;;;;;;;;;;-1.80;99.90;;;;;;5087603;28;19928;-66
2022/12/10 07:29:57;;;;;;;;;;;-1.80;99.90;;;;;;5088801;28;20266;-66
2022/12/10 07:32:23;;;;;;;;;;;-1.70;99.90;;;;;;5083850;28;19973;-66
2022/12/10 07:34:48;;;;;;;;;;;-1.70;99.90;;;;;;5087247;28;19932;-66
2022/12/10 07:37:14;;;;;;;;;;;-1.60;99.90;;;;;;5083915;28;20444;-66
2022/12/10 07:39:39;;;;;;;;;;;-1.60;99.90;;;;;;5067640;28;19950;-66
2022/12/10 07:42:05;;;;;;;;;;;-1.70;99.90;;;;;;5086509;28;19955;-66
2022/12/10 07:44:30;;;;;;;;;;;-1.70;99.90;;;;;;5088071;28;19924;-66
2022/12/10 07:46:56;;;;;;;;;;;-1.60;99.90;;;;;;5087029;28;19923;-66
2022/12/10 07:49:22;;;;;;;;;;;-1.60;99.90;;;;;;5091240;28;20374;-66
2022/12/10 07:51:48;;;;;;;;;;;-1.60;99.90;;;;;;5116010;27;19931;-66
2022/12/10 07:54:14;;;;;;;;;;;-1.50;99.90;;;;;;5120143;27;19928;-66
2022/12/10 07:56:40;;;;;;;;;;;-1.50;99.90;;;;;;5085940;28;20018;-66
2022/12/10 07:59:05;;;;;;;;;;;-1.60;99.90;;;;;;5127549;27;19977;-66
2022/12/10 08:01:31;;;;;;;;;;;-1.50;99.90;;;;;;5089925;28;19920;-66
2022/12/10 08:03:56;;;;;;;;;;;-1.50;99.90;;;;;;5091150;28;20268;-66
2022/12/10 08:06:23;;;;;;;;;;;-1.50;99.90;;;;;;5077739;28;19927;-66
2022/12/10 08:08:49;;;;;;;;;;;-1.50;99.90;;;;;;5090179;28;19958;-66
2022/12/10 08:11:15;;;;;;;;;;;-1.40;99.90;;;;;;5111048;27;19920;-66
2022/12/10 08:13:41;;;;;;;;;;;-1.50;99.90;;;;;;5115378;27;19931;-66
2022/12/10 08:16:12;;;;;;;;;;;-1.50;99.90;;;;;;5088377;28;20415;-66
2022/12/10 08:18:37;;;;;;;;;;;-1.40;99.90;;;;;;5089904;28;20311;-66
2022/12/10 08:21:07;;;;;;;;;;;-1.40;99.90;;;;;;5080747;28;19920;-66
2022/12/10 08:23:32;;;;;;;;;;;-1.40;99.90;;;;;;5089153;28;19959;-66
2022/12/10 08:25:58;;;;;;;;;;;-1.30;99.90;;;;;;5078260;28;19990;-66
2022/12/10 08:28:24;;;;;;;;;;;-1.40;99.90;;;;;;5111828;27;19958;-66
2022/12/10 08:30:49;;;;;;;;;;;-1.40;99.90;;;;;;5086928;28;19919;-68
2022/12/10 08:33:15;;;;;;;;;;;-1.30;99.90;;;;;;5087794;28;20461;-66
2022/12/10 08:35:41;;;;;;;;;;;-1.20;99.90;;;;;;5088759;28;19920;-66
2022/12/10 08:38:06;;;;;;;;;;;-1.20;99.90;;;;;;5089147;28;19943;-66
2022/12/10 08:40:32;;;;;;;;;;;-1.20;99.90;;;;;;5083044;28;19974;-66
2022/12/10 08:42:57;;;;;;;;;;;-1.30;99.90;;;;;;5082975;28;20445;-66
2022/12/10 08:45:23;;;;;;;;;;;-1.20;99.90;;;;;;5083347;28;19928;-66
2022/12/10 08:47:48;;;;;;;;;;;-1.20;99.90;;;;;;5090632;28;19927;-65
2022/12/10 08:50:14;;;;;;;;;;;-1.30;99.90;;;;;;5085477;28;20333;-66
2022/12/10 08:52:39;;;;;;;;;;;-1.20;99.90;;;;;;5117916;27;19920;-66
2022/12/10 08:55:05;;;;;;;;;;;-1.30;99.90;;;;;;5087189;28;19963;-66
2022/12/10 08:57:30;;;;;;;;;;;-1.30;99.90;;;;;;5111663;27;19924;-65
2022/12/10 08:59:56;;;;;;;;;;;-1.30;99.90;;;;;;5084694;28;19920;-66
2022/12/10 09:02:21;;;;;;;;;;;-1.30;99.90;;;;;;5080061;28;19923;-65
2022/12/10 09:04:49;;;;;;;;;;;-1.20;99.90;;;;;;5089745;28;19920;-66
2022/12/10 09:07:14;;;;;;;;;;;-1.20;99.90;;;;;;5088347;28;20003;-66
2022/12/10 09:09:40;;;;;;;;;;;-1.10;99.90;;;;;;5092215;28;20015;-66
2022/12/10 09:12:05;;;;;;;;;;;-1.10;99.90;;;;;;5087611;28;20325;-66
2022/12/10 09:14:31;;;;;;;;;;;-1.10;99.90;;;;;;5091080;28;19924;-66
2022/12/10 09:16:57;;;;;;;;;;;-1.00;99.90;;;;;;5112209;27;19977;-66
2022/12/10 09:19:22;;;;;;;;;;;-1.00;99.90;;;;;;5087620;28;20267;-66
2022/12/10 09:21:48;;;;;;;;;;;-1.00;99.90;;;;;;5092290;28;20325;-66
2022/12/10 09:24:13;;;;;;;;;;;-1.00;99.90;;;;;;5092527;28;19924;-66
2022/12/10 09:26:39;;;;;;;;;;;-1.10;99.90;;;;;;5069769;28;20344;-66
2022/12/10 09:29:04;;;;;;;;;;;-1.00;99.90;;;;;;5092899;28;19932;-66
2022/12/10 09:31:30;;;;;;;;;;;-1.00;99.90;;;;;;5089900;28;20146;-66
2022/12/10 09:33:55;;;;;;;;;;;-1.00;99.90;;;;;;5088865;28;20030;-66
2022/12/10 09:36:21;;;;;;;;;;;-1.10;99.90;;;;;;5094588;28;20388;-66
2022/12/10 09:38:47;;;;;;;;;;;-1.10;99.90;;;;;;5094320;28;20370;-66
2022/12/10 09:41:23;;;;;;;;;;;-1.00;99.90;;;;;;5089531;28;19979;-66
2022/12/10 09:43:49;;;;;;;;;;;-0.90;99.90;;;;;;5092881;28;19924;-66
2022/12/10 09:46:23;;;;;;;;;;;-1.00;99.90;;;;;;5091386;28;19927;-66
2022/12/10 09:48:51;;;;;;;;;;;-1.00;99.90;;;;;;5090631;28;19943;-66
2022/12/10 09:51:25;;;;;;;;;;;-1.00;99.90;;;;;;5087253;28;20348;-66
2022/12/10 09:53:58;;;;;;;;;;;-1.10;99.90;;;;;;5090632;28;19978;-66
2022/12/10 09:56:26;;;;;;;;;;;-1.10;99.90;;;;;;5080605;28;20361;-66
2022/12/10 09:58:52;;;;;;;;;;;-1.00;99.90;;;;;;5083556;28;19927;-65
2022/12/10 10:01:19;;;;;;;;;;;-1.10;99.90;;;;;;5086751;28;19923;-66
2022/12/10 10:03:44;;;;;;;;;;;-1.10;99.90;;;;;;5087176;28;19928;-66
2022/12/10 10:06:12;;;;;;;;;;;-1.00;99.90;;;;;;5087390;28;20434;-66
2022/12/10 10:08:42;;;;;;;;;;;-1.10;99.90;;;;;;5092335;28;19943;-66
2022/12/10 10:11:11;;;;;;;;;;;-1.00;99.90;;;;;;5085714;28;19932;-66
2022/12/10 10:13:41;;;;;;;;;;;-0.90;99.90;;;;;;5083170;28;19932;-65
2022/12/10 10:16:15;;;;;;;;;;;-1.00;99.90;;;;;;5081576;28;20353;-66
2022/12/10 10:18:43;;;;;;;;;;;-0.90;99.90;;;;;;5090975;28;19924;-65
2022/12/10 10:21:16;;;;;;;;;;;-1.00;99.90;;;;;;5115592;27;19924;-65
2022/12/10 10:23:43;;;;;;;;;;;-0.90;99.90;;;;;;5093459;28;19932;-66
2022/12/10 10:26:08;;;;;;;;;;;-0.90;99.90;;;;;;5085071;28;19928;-65
2022/12/10 10:28:34;;;;;;;;;;;-0.90;99.90;;;;;;5087163;28;19963;-65
2022/12/10 10:30:59;;;;;;;;;;;-0.80;99.90;;;;;;5121392;27;19958;-65
2022/12/10 10:33:25;;;;;;;;;;;-0.90;99.90;;;;;;5089986;28;19932;-65
2022/12/10 10:35:56;;;;;;;;;;;-0.80;99.90;;;;;;5084248;28;20409;-65
2022/12/10 10:38:23;;;;;;;;;;;-0.80;99.90;;;;;;5116917;27;19927;-65
2022/12/10 10:40:53;;;;;;;;;;;-0.80;99.90;;;;;;5121369;27;19928;-64
2022/12/10 10:43:44;;;;;;;;;;;-0.80;99.90;;;;;;5090639;28;19924;-65
2022/12/10 10:46:10;;;;;;;;;;;-0.70;99.90;;;;;;5084670;28;19920;-65
2022/12/10 10:48:35;;;;;;;;;;;-0.60;99.90;;;;;;5086827;28;20332;-65
2022/12/10 10:51:03;;;;;;;;;;;-0.70;99.90;;;;;;5082615;28;19928;-65
2022/12/10 10:53:32;;;;;;;;;;;-0.60;99.90;;;;;;5080087;28;19928;-65
2022/12/10 10:56:01;;;;;;;;;;;-0.60;99.90;;;;;;5119934;27;20026;-65
2022/12/10 10:58:26;;;;;;;;;;;-0.70;99.90;;;;;;5090921;28;19920;-65
2022/12/10 11:00:56;;;;;;;;;;;-0.60;99.90;;;;;;5086919;28;19985;-65
2022/12/10 11:03:22;;;;;;;;;;;-0.60;99.90;;;;;;5087970;28;20003;-65
2022/12/10 11:05:48;;;;;;;;;;;-0.40;99.90;;;;;;5080319;28;20031;-67
2022/12/10 11:08:17;;;;;;;;;;;-0.40;99.90;;;;;;5067468;28;20370;-65
2022/12/10 11:10:47;;;;;;;;;;;-0.50;99.90;;;;;;5093183;28;19973;-67
2022/12/10 11:13:18;;;;;;;;;;;-0.40;99.90;;;;;;5093263;28;19928;-67
2022/12/10 11:15:44;;;;;;;;;;;-0.40;99.90;;;;;;5123492;27;19932;-67
2022/12/10 11:18:24;;;;;;;;;;;-0.40;99.90;;;;;;5075565;28;20181;-67
2022/12/10 11:21:16;;;;;;;;;;;-0.40;99.90;;;;;;5096673;28;19931;-65
2022/12/10 11:23:46;;;;;;;;;;;-0.20;99.90;;;;;;5088745;28;20409;-64
2022/12/10 11:26:19;;;;;;;;;;;-0.30;99.90;;;;;;5092928;28;20286;-65
2022/12/10 11:28:50;;;;;;;;;;;-0.20;99.90;;;;;;5095609;28;20418;-65
2022/12/10 11:31:31;;;;;;;;;;;-0.20;99.90;;;;;;5082632;28;20014;-65
2022/12/10 11:34:05;;;;;;;;;;;-0.30;99.90;;;;;;5087570;28;20373;-64
2022/12/10 11:36:41;;;;;;;;;;;-0.30;99.90;;;;;;5072181;28;19924;-65
2022/12/10 11:39:24;;;;;;;;;;;-0.20;99.90;;;;;;5084907;28;20020;-65
2022/12/10 11:42:01;;;;;;;;;;;-0.10;99.90;;;;;;5106440;27;19926;-64
2022/12/10 11:44:27;;;;;;;;;;;-0.20;99.90;;;;;;5118352;27;19927;-64
2022/12/10 11:47:13;;;;;;;;;;;-0.10;99.90;;;;;;5073210;28;19920;-65
2022/12/10 11:49:40;;;;;;;;;;;-0.10;99.90;;;;;;5089722;28;20212;-64
2022/12/10 11:52:25;;;;;;;;;;;0.00;99.90;;;;;;5082165;28;19920;-65
2022/12/10 11:55:02;;;;;;;;;;;0.00;99.90;;;;;;5085995;28;19924;-64
2022/12/10 11:57:46;;;;;;;;;;;-0.10;99.90;;;;;;5085297;28;19924;-64
2022/12/10 12:00:15;;;;;;;;;;;0.00;99.90;;;;;;5094001;28;19927;-64
2022/12/10 12:02:41;;;;;;;;;;;0.00;99.90;;;;;;5069077;28;19920;-64
2022/12/10 12:05:06;;;;;;;;;;;-0.10;99.90;;;;;;5106456;28;19924;-64
2022/12/10 12:07:48;;;;;;;;;;;0.00;99.90;;;;;;5053402;28;20412;-64
2022/12/10 12:10:13;;;;;;;;;;;0.10;99.90;;;;;;5057474;28;19920;-64
2022/12/10 12:12:39;;;;;;;;;;;0.10;99.90;;;;;;5061954;28;19935;-65
2022/12/10 12:15:13;;;;;;;;;;;0.10;99.90;;;;;;5096984;27;20014;-65
2022/12/10 12:17:41;;;;;;;;;;;0.10;99.90;;;;;;5076452;28;20318;-64
2022/12/10 12:20:33;;;;;;;;;;;0.20;99.90;;;;;;5076463;28;19927;-64
2022/12/10 12:23:10;;;;;;;;;;;0.30;99.90;;;;;;5063586;28;19953;-64
2022/12/10 12:25:38;;;;;;;;;;;0.30;99.90;;;;;;5072371;28;20665;-64
2022/12/10 12:28:19;;;;;;;;;;;0.50;99.90;;;;;;5065443;28;19928;-64
2022/12/10 12:30:45;;;;;;;;;;;0.50;99.90;;;;;;5057117;28;19928;-64
2022/12/10 12:33:16;;;;;;;;;;;0.60;99.90;;;;;;5069347;28;19954;-65
2022/12/10 12:35:44;;;;;;;;;;;0.60;99.90;;;;;;5067214;28;19927;-64
2022/12/10 12:38:13;;;;;;;;;;;0.60;99.90;;;;;;5082693;28;19920;-65
2022/12/10 12:40:47;;;;;;;;;;;0.60;99.90;;;;;;5072389;28;20353;-65
2022/12/10 12:43:16;;;;;;;;;;;0.70;99.90;;;;;;5099862;28;19924;-65
2022/12/10 12:45:44;;;;;;;;;;;0.60;99.90;;;;;;5054565;28;19920;-65
2022/12/10 12:48:16;;;;;;;;;;;0.60;99.90;;;;;;5062250;28;20363;-65
2022/12/10 12:50:44;;;;;;;;;;;0.50;99.90;;;;;;5121600;28;19999;-64
2022/12/10 12:53:15;;;;;;;;;;;0.50;99.90;;;;;;5071060;28;20019;-64
2022/12/10 12:55:46;;;;;;;;;;;0.50;99.90;;;;;;5104220;28;19931;-64
2022/12/10 12:58:27;;;;;;;;;;;0.60;99.90;;;;;;5100392;28;19965;-64
2022/12/10 13:00:55;;;;;;;;;;;0.60;99.90;;;;;;5096571;28;19942;-64
2022/12/10 13:03:29;;;;;;;;;;;0.50;99.90;;;;;;5062326;28;20281;-65
2022/12/10 13:05:54;;;;;;;;;;;0.60;99.90;;;;;;5072126;28;20033;-65
2022/12/10 13:08:20;;;;;;;;;;;0.60;99.90;;;;;;5062576;28;20242;-64
2022/12/10 13:10:53;;;;;;;;;;;0.60;99.90;;;;;;5080154;28;19924;-65
2022/12/10 13:13:22;;;;;;;;;;;0.60;99.90;;;;;;5070514;28;19974;-64
2022/12/10 13:15:47;;;;;;;;;;;0.70;99.90;;;;;;5083134;28;19977;-65
2022/12/10 13:18:13;;;;;;;;;;;0.70;99.90;;;;;;5066028;28;19923;-64
2022/12/10 13:20:41;;;;;;;;;;;0.60;99.90;;;;;;5072391;28;20024;-65
2022/12/10 13:23:25;;;;;;;;;;;0.50;99.90;;;;;;5105291;28;19991;-65
2022/12/10 13:25:57;;;;;;;;;;;0.60;99.90;;;;;;5110999;28;19927;-64
2022/12/10 13:28:25;;;;;;;;;;;0.50;99.90;;;;;;5099749;28;19942;-64
2022/12/10 13:31:06;;;;;;;;;;;0.50;99.90;;;;;;5101598;28;19924;-64
2022/12/10 13:33:49;;;;;;;;;;;0.50;99.90;;;;;;5100587;28;19920;-64
2022/12/10 13:36:33;;;;;;;;;;;0.40;99.90;;;;;;5101467;28;19927;-65
2022/12/10 13:39:02;;;;;;;;;;;0.40;99.90;;;;;;5102898;28;19924;-64
2022/12/10 13:44:32;;;;;;;;;;;0.50;99.90;;;;;;5069359;28;19939;-64
2022/12/10 13:46:59;;;;;;;;;;;0.30;99.90;;;;;;5063829;28;20410;-64
2022/12/10 13:49:29;;;;;;;;;;;0.30;99.90;;;;;;5054120;28;19920;-64
2022/12/10 13:51:59;;;;;;;;;;;0.30;99.90;;;;;;5052608;28;19921;-64
2022/12/10 13:54:24;;;;;;;;;;;0.20;99.90;;;;;;5072114;28;20438;-64
2022/12/10 13:56:50;;;;;;;;;;;0.20;99.90;;;;;;5100722;28;20019;-64
2022/12/10 13:59:41;;;;;;;;;;;0.20;99.90;;;;;;5109480;27;19920;-64
2022/12/10 14:02:25;;;;;;;;;;;0.10;99.90;;;;;;5093740;28;19956;-64
2022/12/10 14:05:11;;;;;;;;;;;0.20;99.90;;;;;;5088863;28;20294;-64
2022/12/10 14:07:37;;;;;;;;;;;0.00;99.90;;;;;;5070698;28;19947;-64
2022/12/10 14:10:03;;;;;;;;;;;0.00;99.90;;;;;;5075590;28;20381;-64
2022/12/10 14:12:31;;;;;;;;;;;0.00;99.90;;;;;;5072417;28;19924;-64
2022/12/10 14:15:01;;;;;;;;;;;0.10;99.90;;;;;;5071494;28;19928;-64
2022/12/10 14:17:31;;;;;;;;;;;-0.10;99.90;;;;;;5107312;28;19927;-64
2022/12/10 14:19:57;;;;;;;;;;;0.00;99.90;;;;;;5067817;28;19935;-64
2022/12/10 14:22:28;;;;;;;;;;;0.00;99.90;;;;;;5074467;28;19920;-64
2022/12/10 14:24:58;;;;;;;;;;;0.00;99.90;;;;;;5069590;28;20294;-64
2022/12/10 14:27:24;;;;;;;;;;;0.00;99.90;;;;;;5069951;28;20314;-64
2022/12/10 14:29:51;;;;;;;;;;;0.10;99.90;;;;;;5092395;28;19940;-64
2022/12/10 14:32:30;;;;;;;;;;;-0.10;99.90;;;;;;5075196;28;19927;-64
2022/12/10 14:34:56;;;;;;;;;;;0.00;99.90;;;;;;5103261;27;19924;-64
2022/12/10 14:37:24;;;;;;;;;;;0.00;99.90;;;;;;5084437;28;19920;-64
2022/12/10 14:39:50;;;;;;;;;;;0.00;99.90;;;;;;5076357;28;19920;-65
2022/12/10 14:42:16;;;;;;;;;;;-0.10;99.90;;;;;;5062538;28;19921;-65
2022/12/10 14:44:41;;;;;;;;;;;0.00;99.90;;;;;;5107461;27;19920;-65